Time;durP1;ratioP1;P1;durP2;ratioP2;P2;SDS_P1;SDS_P2;PMS_P1;PMS_P2;Temp;Humidity;BMP_temperature;BMP_pressure;BME280_temperature;BME280_humidity;BME280_pressure;Samples;Min_cycle;Max_cycle;Signal;HPM_P1;HPM_P2
2023/04/02 00:02:20;;;;;;;10.57;7.03;;;;;;;12.56;60.28;101313.22;5086058;28;20024;-68
2023/04/02 00:05:19;;;;;;;11.63;8.03;;;;;;;13.91;57.37;101322.84;5086468;28;20047;-68
2023/04/02 00:07:51;;;;;;;10.97;6.93;;;;;;;14.03;57.28;101325.25;5086190;28;20036;-69
2023/04/02 00:10:35;;;;;;;14.03;7.23;;;;;;;13.03;59.02;101334.53;5085898;28;20028;-69
2023/04/02 00:13:11;;;;;;;12.90;7.17;;;;;;;13.94;57.94;101329.81;5085925;28;20040;-70
2023/04/02 00:15:37;;;;;;;13.63;7.30;;;;;;;13.80;58.48;101337.91;5086775;28;20115;-69
2023/04/02 00:18:04;;;;;;;16.73;8.27;;;;;;;13.65;59.42;101345.13;5086719;28;20030;-69
2023/04/02 00:20:35;;;;;;;12.90;7.20;;;;;;;13.70;56.62;101348.56;5083722;28;20388;-69
2023/04/02 00:23:02;;;;;;;9.77;6.50;;;;;;;13.10;59.15;101351.09;5086646;28;20395;-69
2023/04/02 00:25:33;;;;;;;16.67;7.33;;;;;;;12.88;60.45;101352.19;5087379;28;20059;-69
2023/04/02 00:27:58;;;;;;;12.93;7.37;;;;;;;13.49;59.73;101359.34;5085098;28;20051;-69
2023/04/02 00:30:24;;;;;;;17.63;8.40;;;;;;;13.28;59.07;101358.72;5084452;28;20122;-69
2023/04/02 00:32:50;;;;;;;16.37;9.10;;;;;;;14.08;57.10;101360.22;5085741;28;20028;-69
2023/04/02 00:35:24;;;;;;;15.47;8.00;;;;;;;13.60;56.58;101367.09;5085539;28;20094;-69
2023/04/02 00:37:50;;;;;;;16.93;8.60;;;;;;;14.43;54.67;101363.16;5086321;28;20446;-69
2023/04/02 00:40:23;;;;;;;15.73;9.10;;;;;;;14.11;54.12;101368.94;5090731;28;20031;-69
2023/04/02 00:42:51;;;;;;;16.40;10.07;;;;;;;13.28;56.82;101382.34;5088468;28;20026;-69
2023/04/02 00:45:25;;;;;;;15.20;8.70;;;;;;;13.20;58.09;101395.59;5089950;28;20027;-69
2023/04/02 00:47:51;;;;;;;14.43;8.53;;;;;;;14.02;57.05;101389.22;5090236;28;20338;-69
2023/04/02 00:50:27;;;;;;;15.70;7.93;;;;;;;13.18;57.84;101396.47;5087764;28;20071;-69
2023/04/02 00:52:55;;;;;;;13.90;7.67;;;;;;;12.68;59.18;101397.03;5089659;28;20498;-69
2023/04/02 00:55:35;;;;;;;16.17;8.80;;;;;;;13.62;55.94;101396.84;5088213;28;20036;-69
2023/04/02 00:58:03;;;;;;;15.33;8.80;;;;;;;13.93;55.51;101402.53;5087200;28;20027;-69
2023/04/02 01:00:36;;;;;;;12.30;8.30;;;;;;;12.57;60.98;101412.00;5086067;28;20032;-68
2023/04/02 01:03:17;;;;;;;13.73;8.23;;;;;;;13.53;56.90;101411.84;5103445;28;20024;-69
2023/04/02 01:05:49;;;;;;;12.77;7.90;;;;;;;13.69;56.67;101419.50;5085935;28;20043;-69
2023/04/02 01:08:30;;;;;;;13.10;7.90;;;;;;;13.14;57.75;101431.53;5090770;28;20440;-69
2023/04/02 01:11:14;;;;;;;11.30;7.53;;;;;;;13.56;56.24;101434.56;5082563;28;20023;-69
2023/04/02 01:14:01;;;;;;;12.93;7.63;;;;;;;13.73;56.11;101443.06;5072402;28;20091;-69
2023/04/02 01:16:45;;;;;;;9.63;6.50;;;;;;;12.82;57.68;101440.63;5088309;28;20043;-70
2023/04/02 01:19:47;;;;;;;16.07;8.50;;;;;;;12.96;58.20;101443.97;5069052;28;20032;-69
2023/04/02 01:22:34;;;;;;;13.87;7.40;;;;;;;14.54;53.22;101449.78;5080268;28;20043;-70
2023/04/02 01:25:03;;;;;;;12.23;7.80;;;;;;;13.22;56.52;101453.31;5087371;28;20044;-69
2023/04/02 01:27:40;;;;;;;12.60;7.00;;;;;;;12.37;58.74;101460.19;5089001;28;20446;-69
2023/04/02 01:30:08;;;;;;;13.63;7.70;;;;;;;12.68;58.16;101459.97;5085635;28;20035;-69
2023/04/02 01:32:34;;;;;;;14.33;7.90;;;;;;;14.22;53.79;101456.44;5086362;28;20020;-69
2023/04/02 01:35:00;;;;;;;13.83;8.00;;;;;;;12.70;57.66;101459.94;5078447;28;20039;-69
2023/04/02 01:37:55;;;;;;;11.87;7.33;;;;;;;13.14;56.01;101463.03;5083654;28;20024;-70
2023/04/02 01:40:38;;;;;;;13.40;7.97;;;;;;;12.84;58.37;101471.16;5081219;28;20047;-69
2023/04/02 01:43:22;;;;;;;13.33;6.77;;;;;;;12.81;58.14;101486.09;5086939;28;20077;-69
2023/04/02 01:45:49;;;;;;;11.80;7.57;;;;;;;12.26;58.52;101493.50;5086456;28;20131;-70
2023/04/02 01:48:18;;;;;;;12.30;8.33;;;;;;;13.06;55.73;101482.34;5084752;28;20052;-69
2023/04/02 01:50:48;;;;;;;15.10;8.23;;;;;;;13.76;54.28;101492.09;5069113;28;20035;-69
2023/04/02 01:53:16;;;;;;;13.03;8.07;;;;;;;13.62;53.94;101488.78;5067369;28;20404;-69
2023/04/02 01:55:48;;;;;;;11.40;7.43;;;;;;;12.95;55.88;101507.81;5069117;28;20032;-69
2023/04/02 01:58:19;;;;;;;11.27;7.72;;;;;;;12.51;58.18;101514.28;5050200;28;20031;-70
2023/04/02 02:01:08;;;;;;;13.77;7.43;;;;;;;12.62;59.77;101511.59;5051526;28;20024;-70
2023/04/02 02:03:34;;;;;;;14.43;7.67;;;;;;;13.12;56.44;101522.53;5032456;28;20028;-70
2023/04/02 02:06:01;;;;;;;15.60;6.80;;;;;;;12.63;56.46;101518.59;5042638;28;20036;-69
2023/04/02 02:08:38;;;;;;;11.77;7.53;;;;;;;12.78;57.63;101520.22;5051295;28;20097;-70
2023/04/02 02:11:07;;;;;;;15.93;7.37;;;;;;;13.05;56.29;101526.97;5049531;28;20060;-69
2023/04/02 02:13:32;;;;;;;15.13;8.23;;;;;;;12.75;58.71;101525.47;5063453;28;20480;-69
2023/04/02 02:15:59;;;;;;;12.73;7.90;;;;;;;13.16;56.30;101525.13;5067395;28;20032;-69
2023/04/02 02:18:26;;;;;;;11.73;8.10;;;;;;;13.17;54.89;101536.47;5049748;28;20052;-69
2023/04/02 02:20:52;;;;;;;12.87;7.67;;;;;;;13.42;55.02;101538.91;5066988;28;20374;-69
2023/04/02 02:23:19;;;;;;;10.63;7.53;;;;;;;13.46;55.08;101535.34;5067769;28;20116;-70
2023/04/02 02:25:45;;;;;;;13.03;7.00;;;;;;;13.06;55.26;101545.34;5048636;28;20477;-70
2023/04/02 02:28:20;;;;;;;12.30;7.03;;;;;;;12.51;55.99;101553.63;5049054;28;20027;-69
2023/04/02 02:31:00;;;;;;;8.90;6.43;;;;;;;12.52;56.25;101556.25;5034542;28;20078;-69
2023/04/02 02:33:42;;;;;;;9.60;6.83;;;;;;;13.26;54.61;101557.41;5057162;28;20028;-69
2023/04/02 02:36:19;;;;;;;11.18;7.00;;;;;;;13.19;53.95;101567.09;5049111;28;20039;-69
2023/04/02 02:38:56;;;;;;;11.17;7.07;;;;;;;14.04;51.80;101563.56;5066994;28;20558;-69
2023/04/02 02:41:34;;;;;;;11.77;6.90;;;;;;;11.88;58.83;101575.75;5066719;28;20519;-69
2023/04/02 02:44:12;;;;;;;11.17;6.57;;;;;;;12.72;56.72;101577.09;5049571;28;20028;-70
2023/04/02 02:46:53;;;;;;;12.10;6.77;;;;;;;12.94;55.98;101582.19;5049395;28;20043;-69
2023/04/02 02:49:25;;;;;;;11.47;6.63;;;;;;;12.38;57.38;101586.94;5069856;28;20131;-69
2023/04/02 02:52:12;;;;;;;10.15;6.55;;;;;;;12.86;55.47;101592.72;5088081;28;20051;-69
2023/04/02 02:54:41;;;;;;;12.30;6.17;;;;;;;12.95;54.90;101599.66;5088112;28;20467;-70
2023/04/02 02:57:11;;;;;;;11.50;6.93;;;;;;;12.84;56.22;101601.50;5085715;28;20028;-69
2023/04/02 02:59:37;;;;;;;11.30;6.07;;;;;;;12.64;55.65;101609.47;5084825;28;20027;-70
2023/04/02 03:02:05;;;;;;;12.20;6.87;;;;;;;12.41;55.46;101602.63;5086476;28;20205;-69
2023/04/02 03:04:34;;;;;;;8.83;5.93;;;;;;;12.41;56.18;101607.88;5087909;28;20024;-70
2023/04/02 03:07:10;;;;;;;11.83;6.70;;;;;;;12.20;58.15;101624.59;5086647;28;20293;-69
2023/04/02 03:09:44;;;;;;;18.27;8.47;;;;;;;12.56;56.07;101625.28;5084340;28;20107;-70
2023/04/02 03:12:25;;;;;;;14.07;6.90;;;;;;;12.09;56.16;101629.88;5086349;28;20398;-69
2023/04/02 03:15:07;;;;;;;13.97;6.97;;;;;;;12.36;57.18;101642.00;5088197;28;20391;-69
2023/04/02 03:17:46;;;;;;;15.67;8.37;;;;;;;11.82;57.32;101633.41;5084822;28;20073;-70
2023/04/02 03:20:19;;;;;;;13.57;7.83;;;;;;;12.24;56.10;101652.53;5085701;28;20784;-70
2023/04/02 03:23:03;;;;;;;11.50;7.18;;;;;;;11.85;56.98;101662.22;5087129;28;20404;-70
2023/04/02 03:25:41;;;;;;;10.47;7.03;;;;;;;11.50;59.00;101671.00;5086801;28;20064;-69
2023/04/02 03:28:13;;;;;;;10.13;7.17;;;;;;;11.92;57.93;101674.41;5087036;28;20036;-69
2023/04/02 03:30:56;;;;;;;11.15;6.72;;;;;;;12.19;56.03;101675.25;5085819;28;20484;-70
2023/04/02 03:33:36;;;;;;;13.03;7.40;;;;;;;12.55;55.44;101678.59;5075080;28;20119;-70
2023/04/02 03:36:17;;;;;;;12.93;7.10;;;;;;;11.97;56.76;101677.06;5086989;28;20047;-70
2023/04/02 03:38:50;;;;;;;13.50;7.00;;;;;;;12.85;54.19;101676.69;5078441;28;20020;-70
2023/04/02 03:41:21;;;;;;;9.27;5.47;;;;;;;12.27;54.16;101678.72;5084776;28;20071;-69
2023/04/02 03:43:53;;;;;;;11.10;6.23;;;;;;;13.09;53.80;101690.53;5087061;28;20107;-70
2023/04/02 03:46:39;;;;;;;10.13;6.50;;;;;;;12.39;54.85;101694.41;5086633;28;20035;-70
2023/04/02 03:49:13;;;;;;;14.00;7.70;;;;;;;13.38;53.37;101699.13;5085537;28;20071;-70
2023/04/02 03:51:51;;;;;;;11.83;6.80;;;;;;;12.97;53.86;101713.38;5085519;28;20077;-70
2023/04/02 03:54:17;;;;;;;11.57;6.80;;;;;;;12.58;55.85;101720.53;5085111;28;20089;-70
2023/04/02 03:56:46;;;;;;;11.93;7.80;;;;;;;12.34;55.84;101732.00;5079483;28;20031;-70
2023/04/02 03:59:23;;;;;;;12.67;7.07;;;;;;;12.71;54.14;101732.72;5086207;28;20028;-69
2023/04/02 04:01:58;;;;;;;10.13;6.93;;;;;;;12.35;53.95;101744.22;5086242;28;20546;-69
2023/04/02 04:04:26;;;;;;;9.23;6.10;;;;;;;11.10;58.47;101757.31;5073799;28;20542;-70
2023/04/02 04:06:55;;;;;;;10.27;6.77;;;;;;;12.60;55.70;101755.53;5085470;28;20475;-70
2023/04/02 04:09:36;;;;;;;9.70;6.50;;;;;;;12.01;55.17;101762.66;5085721;28;20036;-70
2023/04/02 04:12:21;;;;;;;9.83;6.67;;;;;;;12.12;56.93;101766.13;5089071;28;20024;-70
2023/04/02 04:15:19;;;;;;;10.67;6.70;;;;;;;12.53;55.53;101769.53;5088531;28;20036;-69
2023/04/02 04:18:09;;;;;;;12.13;6.67;;;;;;;11.29;58.10;101769.59;5030613;28;20040;-70
2023/04/02 04:20:57;;;;;;;12.73;7.40;;;;;;;13.26;53.65;101767.44;5074988;28;20081;-69
2023/04/02 04:23:31;;;;;;;12.43;7.83;;;;;;;12.15;55.27;101780.97;5090635;28;20031;-69
2023/04/02 04:26:08;;;;;;;11.17;7.20;;;;;;;12.75;55.29;101779.94;5089339;28;20024;-70
2023/04/02 04:28:46;;;;;;;11.00;6.63;;;;;;;11.76;56.15;101790.56;5089139;28;20055;-70
2023/04/02 04:31:25;;;;;;;12.70;7.73;;;;;;;12.71;55.27;101792.22;5082207;28;20400;-69
2023/04/02 04:34:04;;;;;;;9.57;7.10;;;;;;;11.91;56.61;101805.41;5078449;28;20450;-69
2023/04/02 04:36:36;;;;;;;10.27;6.53;;;;;;;11.55;56.70;101808.00;5089352;28;20059;-69
2023/04/02 04:39:13;;;;;;;13.32;5.93;;;;;;;11.22;56.09;101820.13;5089307;28;20220;-69
2023/04/02 04:41:41;;;;;;;12.97;6.93;;;;;;;11.29;57.38;101824.53;5087699;28;20123;-69
2023/04/02 04:44:20;;;;;;;9.33;6.97;;;;;;;11.74;57.84;101818.50;5089635;28;20088;-69
2023/04/02 04:47:09;;;;;;;11.50;6.57;;;;;;;10.82;59.21;101833.06;5090497;28;20501;-70
2023/04/02 04:49:37;;;;;;;15.23;7.17;;;;;;;10.90;60.02;101839.22;5080047;28;20083;-70
2023/04/02 04:52:08;;;;;;;11.90;7.30;;;;;;;11.51;56.46;101835.94;5084382;28;20032;-69
2023/04/02 04:54:37;;;;;;;12.20;6.63;;;;;;;11.71;56.23;101845.56;5089307;28;20077;-70
2023/04/02 04:57:05;;;;;;;12.80;6.60;;;;;;;11.11;58.07;101848.88;5088621;28;20032;-70
2023/04/02 04:59:34;;;;;;;12.40;6.83;;;;;;;11.55;55.18;101849.88;5089630;28;20712;-70
2023/04/02 05:02:21;;;;;;;10.27;6.87;;;;;;;11.41;56.25;101851.63;5087551;28;20069;-70
2023/04/02 05:04:51;;;;;;;12.20;7.70;;;;;;;11.15;56.71;101860.25;5086977;28;20032;-69
2023/04/02 05:07:19;;;;;;;13.67;7.70;;;;;;;11.98;54.07;101850.00;5087153;28;20153;-70
2023/04/02 05:09:51;;;;;;;15.20;7.33;;;;;;;11.59;54.74;101866.50;5083188;28;20028;-70
2023/04/02 05:12:37;;;;;;;8.93;6.33;;;;;;;12.30;53.63;101872.69;5088728;28;20499;-70
2023/04/02 05:15:19;;;;;;;14.47;7.10;;;;;;;11.31;53.93;101883.00;5090540;28;20032;-69
2023/04/02 05:18:11;;;;;;;10.70;6.47;;;;;;;11.47;55.21;101888.28;5086576;28;20432;-69
2023/04/02 05:20:55;;;;;;;10.53;5.77;;;;;;;10.55;58.06;101900.03;5071442;28;20020;-69
2023/04/02 05:23:29;;;;;;;11.80;6.47;;;;;;;11.78;54.66;101893.59;5080738;28;20368;-69
2023/04/02 05:26:02;;;;;;;11.00;6.37;;;;;;;12.24;52.49;101904.16;5088980;28;20060;-69
2023/04/02 05:28:33;;;;;;;12.37;7.13;;;;;;;11.70;54.07;101902.31;5088000;28;20031;-69
2023/04/02 05:31:04;;;;;;;9.07;6.30;;;;;;;10.60;55.12;101914.00;5087484;28;20028;-69
2023/04/02 05:33:32;;;;;;;13.43;6.63;;;;;;;11.25;55.47;101924.88;5088331;28;20036;-70
2023/04/02 05:36:11;;;;;;;12.63;6.63;;;;;;;10.78;54.97;101928.94;5088539;28;20535;-69
2023/04/02 05:38:43;;;;;;;10.13;6.70;;;;;;;11.41;53.95;101933.63;5084690;28;20294;-69
2023/04/02 05:41:25;;;;;;;11.67;6.93;;;;;;;11.24;54.21;101936.19;5089032;28;20027;-70
2023/04/02 05:44:00;;;;;;;11.18;6.80;;;;;;;11.34;53.87;101951.06;5076479;28;20020;-72
2023/04/02 05:46:32;;;;;;;9.33;6.17;;;;;;;10.63;55.91;101954.97;5088812;28;20024;-70
2023/04/02 05:48:58;;;;;;;14.07;6.47;;;;;;;11.05;55.32;101957.91;5087302;28;20107;-70
2023/04/02 05:51:39;;;;;;;9.70;6.10;;;;;;;10.10;56.15;101964.09;5086267;28;20028;-69
2023/04/02 05:54:16;;;;;;;9.73;6.07;;;;;;;11.39;53.48;101964.19;5087977;28;20507;-70
2023/04/02 05:56:45;;;;;;;10.03;6.70;;;;;;;11.01;54.56;101972.69;5089266;28;20024;-68
2023/04/02 05:59:26;;;;;;;9.97;6.60;;;;;;;10.73;55.67;101971.63;5086451;28;20032;-69
2023/04/02 06:02:14;;;;;;;9.87;6.23;;;;;;;11.36;54.91;101980.75;5087505;28;20103;-69
2023/04/02 06:04:56;;;;;;;8.33;5.13;;;;;;;10.46;55.88;101981.00;5087474;28;20031;-70
2023/04/02 06:07:33;;;;;;;8.97;5.90;;;;;;;11.49;53.06;101992.16;5086390;28;20038;-69
2023/04/02 06:10:10;;;;;;;9.57;6.00;;;;;;;10.85;54.91;102003.09;5087975;28;20052;-69
2023/04/02 06:13:01;;;;;;;12.80;6.53;;;;;;;11.02;54.05;102014.56;5086844;28;20028;-69
2023/04/02 06:15:26;;;;;;;7.40;6.43;;;;;;;10.17;53.84;102021.63;5081045;28;20028;-69
2023/04/02 06:17:58;;;;;;;8.23;5.53;;;;;;;9.84;54.33;102029.97;5087829;28;20380;-69
2023/04/02 06:20:25;;;;;;;7.95;5.60;;;;;;;10.40;52.07;102041.94;5084908;28;20028;-69
2023/04/02 06:23:05;;;;;;;8.63;5.87;;;;;;;9.78;54.24;102042.94;5087354;28;20024;-69
2023/04/02 06:25:52;;;;;;;8.60;4.93;;;;;;;10.59;52.15;102050.84;5089072;28;20028;-69
2023/04/02 06:28:31;;;;;;;9.00;4.67;;;;;;;10.34;51.54;102066.28;5088466;28;20016;-69
2023/04/02 06:31:01;;;;;;;6.10;4.03;;;;;;;10.10;52.20;102064.22;5089354;28;20028;-69
2023/04/02 06:33:27;;;;;;;9.13;4.50;;;;;;;9.58;54.05;102069.66;5085949;28;20395;-69
2023/04/02 06:35:53;;;;;;;7.00;4.50;;;;;;;9.60;53.58;102082.72;5085760;28;20038;-69
2023/04/02 06:38:29;;;;;;;6.43;4.33;;;;;;;9.82;52.93;102082.19;5087541;28;20370;-70
2023/04/02 06:41:01;;;;;;;7.60;4.27;;;;;;;10.22;51.20;102084.41;5085855;28;20089;-69
2023/04/02 06:43:42;;;;;;;8.70;4.18;;;;;;;9.86;51.83;102096.13;5086899;28;20437;-69
2023/04/02 06:46:18;;;;;;;10.50;4.27;;;;;;;9.73;52.93;102096.84;5087208;28;20490;-70
2023/04/02 06:48:46;;;;;;;7.33;3.83;;;;;;;9.54;51.83;102101.81;5081851;28;20041;-69
2023/04/02 06:51:16;;;;;;;7.27;4.27;;;;;;;10.21;51.70;102106.16;5065337;28;20024;-69
2023/04/02 06:53:44;;;;;;;5.17;3.37;;;;;;;8.96;53.44;102122.63;5067145;28;20361;-69
2023/04/02 06:56:31;;;;;;;6.57;3.70;;;;;;;9.41;52.14;102123.34;5055273;28;20116;-68
2023/04/02 06:58:57;;;;;;;6.17;3.57;;;;;;;9.41;51.78;102123.34;5047424;28;20039;-69
2023/04/02 07:01:27;;;;;;;9.47;4.50;;;;;;;9.97;51.15;102125.00;5050434;28;20023;-69
2023/04/02 07:03:53;;;;;;;8.93;4.97;;;;;;;9.82;51.20;102123.97;5049214;28;20031;-70
2023/04/02 07:06:20;;;;;;;10.27;4.30;;;;;;;9.67;51.48;102121.13;5064547;28;20036;-69
2023/04/02 07:08:46;;;;;;;10.30;4.17;;;;;;;9.82;51.86;102137.03;5063438;28;20048;-69
2023/04/02 07:11:17;;;;;;;7.20;4.37;;;;;;;10.20;51.28;102143.59;5065460;28;20472;-69
2023/04/02 07:13:43;;;;;;;7.20;3.53;;;;;;;10.02;50.04;102150.34;5066765;28;20025;-69
2023/04/02 07:16:17;;;;;;;12.60;4.40;;;;;;;10.65;49.54;102152.00;5049633;28;20024;-69
2023/04/02 07:18:43;;;;;;;10.97;4.43;;;;;;;10.76;49.54;102157.34;5049495;28;20397;-69
2023/04/02 07:21:09;;;;;;;9.40;4.17;;;;;;;9.91;51.57;102171.97;5067876;28;20044;-69
2023/04/02 07:23:34;;;;;;;10.17;3.40;;;;;;;9.62;51.28;102170.66;5068291;28;20150;-68
2023/04/02 07:26:01;;;;;;;7.63;4.37;;;;;;;8.95;53.05;102186.06;5067603;28;20479;-68
2023/04/02 07:28:27;;;;;;;11.10;5.07;;;;;;;9.54;51.49;102177.50;5048027;28;20040;-68
2023/04/02 07:30:53;;;;;;;7.83;4.13;;;;;;;10.26;51.82;102187.22;5059940;28;20023;-69
2023/04/02 07:33:22;;;;;;;7.93;4.40;;;;;;;10.28;50.56;102194.22;5040162;28;20029;-69
2023/04/02 07:35:48;;;;;;;7.40;3.97;;;;;;;8.68;53.50;102196.84;5067018;28;20024;-69
2023/04/02 07:38:14;;;;;;;8.47;4.63;;;;;;;10.69;49.91;102200.84;5049327;28;20024;-68
2023/04/02 07:40:40;;;;;;;7.37;4.50;;;;;;;10.35;50.57;102196.09;5050674;28;20027;-69
2023/04/02 07:43:05;;;;;;;7.57;4.40;;;;;;;9.87;51.02;102207.59;5049945;28;20605;-69
2023/04/02 07:45:31;;;;;;;10.17;4.50;;;;;;;10.00;51.19;102206.91;5047926;28;20048;-68
2023/04/02 07:47:57;;;;;;;8.20;4.40;;;;;;;9.72;50.69;102217.81;5068893;28;20077;-68
2023/04/02 07:50:23;;;;;;;10.90;4.40;;;;;;;9.84;51.37;102211.03;5053572;28;20449;-70
2023/04/02 07:52:49;;;;;;;10.90;4.27;;;;;;;8.82;53.59;102216.25;5071669;28;20036;-69
2023/04/02 07:55:15;;;;;;;9.60;4.20;;;;;;;9.30;53.73;102231.06;5053386;28;20035;-69
2023/04/02 07:57:48;;;;;;;8.93;3.90;;;;;;;8.83;54.20;102231.03;5070161;28;20016;-68
2023/04/02 08:00:14;;;;;;;8.27;4.50;;;;;;;9.60;53.10;102229.81;5052693;28;20055;-69
2023/04/02 08:02:40;;;;;;;6.80;3.80;;;;;;;9.87;51.93;102236.31;5068328;28;20492;-69
2023/04/02 08:05:06;;;;;;;9.23;4.10;;;;;;;9.26;53.84;102241.38;5069265;28;20031;-69
2023/04/02 08:07:32;;;;;;;9.50;4.07;;;;;;;10.78;51.07;102239.31;5067231;28;20032;-68
2023/04/02 08:09:57;;;;;;;6.90;3.87;;;;;;;11.50;48.70;102244.41;5043045;28;20027;-69
2023/04/02 08:12:22;;;;;;;7.10;3.70;;;;;;;10.92;49.94;102256.06;5022391;28;20200;-68
2023/04/02 08:14:48;;;;;;;7.70;3.40;;;;;;;10.29;51.41;102256.09;5055208;28;20157;-69
2023/04/02 08:17:13;;;;;;;5.03;3.17;;;;;;;10.25;51.43;102262.13;5044990;28;20385;-69
2023/04/02 08:19:38;;;;;;;7.77;4.17;;;;;;;9.92;52.47;102273.84;5043514;28;20166;-69
2023/04/02 08:22:04;;;;;;;6.77;3.20;;;;;;;10.01;52.52;102281.84;5069308;28;20512;-69
2023/04/02 08:24:29;;;;;;;5.83;3.67;;;;;;;10.97;48.84;102272.66;5053466;28;20036;-69
2023/04/02 08:26:55;;;;;;;4.87;3.00;;;;;;;10.58;49.39;102287.00;5051093;28;20119;-69
2023/04/02 08:29:21;;;;;;;5.43;3.10;;;;;;;10.29;50.76;102290.06;5066113;28;20036;-69
2023/04/02 08:31:46;;;;;;;6.97;3.40;;;;;;;9.64;51.61;102299.50;5034674;28;20480;-69
2023/04/02 08:34:12;;;;;;;7.23;2.90;;;;;;;10.03;51.07;102297.53;5065886;28;20072;-68
2023/04/02 08:36:40;;;;;;;4.90;3.00;;;;;;;9.27;52.63;102319.72;5051177;28;20025;-68
2023/04/02 08:39:10;;;;;;;4.57;2.73;;;;;;;9.42;52.83;102323.47;5049160;28;20024;-68
2023/04/02 08:42:08;;;;;;;4.77;3.23;;;;;;;9.97;51.18;102333.97;5050595;28;20057;-69
2023/04/02 08:44:53;;;;;;;10.23;3.60;;;;;;;10.03;50.19;102339.31;5011769;28;20044;-68
2023/04/02 08:47:24;;;;;;;7.20;3.87;;;;;;;9.34;51.81;102337.25;5042031;28;20032;-69
2023/04/02 08:49:57;;;;;;;5.67;3.40;;;;;;;10.27;49.72;102338.81;5069639;28;20051;-69
2023/04/02 08:52:27;;;;;;;7.60;3.47;;;;;;;9.89;49.85;102346.94;5064041;28;20040;-69
2023/04/02 08:54:55;;;;;;;6.90;4.17;;;;;;;10.36;50.01;102343.34;5061107;28;20059;-68
2023/04/02 08:57:55;;;;;;;7.87;4.10;;;;;;;10.64;49.72;102344.59;5067369;28;20039;-69
2023/04/02 09:00:42;;;;;;;5.90;3.37;;;;;;;10.44;49.58;102338.22;5048076;28;20480;-69
2023/04/02 09:03:14;;;;;;;7.77;3.53;;;;;;;10.98;48.31;102339.81;5067882;28;20032;-69
2023/04/02 09:05:42;;;;;;;7.35;4.35;;;;;;;11.05;48.34;102342.53;5053347;28;20421;-69
2023/04/02 09:08:26;;;;;;;7.90;3.70;;;;;;;11.66;47.50;102344.91;5046634;28;20024;-69
2023/04/02 09:11:16;;;;;;;4.87;3.43;;;;;;;10.38;49.06;102352.09;5065713;28;20025;-68
2023/04/02 09:13:47;;;;;;;5.00;2.93;;;;;;;9.98;49.46;102362.75;5063908;28;20031;-69
2023/04/02 09:16:15;;;;;;;8.07;4.20;;;;;;;10.19;49.99;102371.78;5067339;28;20029;-69
2023/04/02 09:18:43;;;;;;;7.73;3.60;;;;;;;10.66;47.54;102373.41;5054277;28;20025;-68
2023/04/02 09:21:21;;;;;;;12.10;3.90;;;;;;;10.46;47.76;102381.84;5045729;28;20392;-69
2023/04/02 09:23:48;;;;;;;5.80;3.20;;;;;;;11.14;48.43;102381.88;5068682;28;20036;-68
2023/04/02 09:26:22;;;;;;;6.27;3.97;;;;;;;11.26;46.63;102386.38;5066292;28;20056;-69
2023/04/02 09:28:50;;;;;;;10.30;4.47;;;;;;;10.37;48.23;102406.94;5051629;28;20036;-69
2023/04/02 09:31:22;;;;;;;6.60;3.57;;;;;;;10.97;47.94;102390.38;5070503;28;20369;-69
2023/04/02 09:33:53;;;;;;;7.87;3.37;;;;;;;10.30;48.37;102405.94;5048902;28;20119;-69
2023/04/02 09:36:24;;;;;;;5.37;3.27;;;;;;;11.11;46.73;102402.78;5068310;28;20032;-69
2023/04/02 09:39:05;;;;;;;7.17;3.60;;;;;;;11.11;47.02;102397.53;5070028;28;20062;-69
2023/04/02 09:41:34;;;;;;;7.13;3.10;;;;;;;11.79;45.52;102403.56;5052431;28;20031;-69
2023/04/02 09:44:10;;;;;;;8.07;3.23;;;;;;;11.41;44.78;102410.13;5051643;28;20043;-69
2023/04/02 09:46:36;;;;;;;7.90;3.10;;;;;;;10.54;47.93;102413.34;5049742;28;20043;-69
2023/04/02 09:49:02;;;;;;;6.93;2.90;;;;;;;12.21;44.54;102412.69;5067708;28;20053;-70
2023/04/02 09:51:33;;;;;;;7.43;2.83;;;;;;;13.55;40.89;102404.72;5067349;28;20016;-69
2023/04/02 09:54:01;;;;;;;6.93;2.83;;;;;;;14.71;38.52;102405.66;5050521;28;20481;-69
2023/04/02 09:56:31;;;;;;;6.27;2.80;;;;;;;13.01;39.08;102402.75;5046607;28;20564;-69
2023/04/02 09:59:12;;;;;;;8.00;3.13;;;;;;;13.12;39.38;102415.03;5052500;28;20083;-69
2023/04/02 10:01:55;;;;;;;5.47;2.57;;;;;;;14.34;37.31;102429.34;5060370;28;20060;-69
2023/04/02 10:04:30;;;;;;;6.43;3.45;;;;;;;16.05;36.12;102419.06;5043804;28;20474;-69
2023/04/02 10:06:56;;;;;;;4.87;2.40;;;;;;;16.60;34.18;102422.97;5069628;28;20024;-69
2023/04/02 10:09:31;;;;;;;5.03;2.47;;;;;;;16.90;33.22;102419.16;5051179;28;20020;-69
2023/04/02 10:11:58;;;;;;;7.33;3.37;;;;;;;16.11;34.65;102414.63;5050921;28;20028;-68
2023/04/02 10:14:32;;;;;;;4.07;2.30;;;;;;;17.00;32.39;102427.84;5050598;28;20498;-69
2023/04/02 10:17:05;;;;;;;6.37;2.57;;;;;;;16.73;32.39;102424.63;5051443;28;20568;-69
2023/04/02 10:19:36;;;;;;;3.95;2.58;;;;;;;15.05;34.78;102442.41;5051025;28;20051;-69
2023/04/02 10:22:07;;;;;;;6.77;2.93;;;;;;;15.54;34.49;102438.69;5069815;28;20033;-70
2023/04/02 10:24:33;;;;;;;6.47;2.53;;;;;;;14.99;35.38;102450.31;5051126;28;20123;-69
2023/04/02 10:26:58;;;;;;;6.63;2.90;;;;;;;16.17;33.99;102449.72;5068778;28;20119;-69
2023/04/02 10:29:40;;;;;;;3.53;2.77;;;;;;;16.37;32.95;102452.22;5051487;28;20548;-69
2023/04/02 10:32:24;;;;;;;7.60;3.17;;;;;;;15.57;34.81;102454.47;5068116;28;20583;-69
2023/04/02 10:35:14;;;;;;;4.93;2.60;;;;;;;15.29;35.15;102447.59;5068901;28;20389;-69
2023/04/02 10:38:05;;;;;;;4.07;2.47;;;;;;;16.43;34.07;102447.78;5051624;28;20037;-69
2023/04/02 10:40:38;;;;;;;3.97;2.27;;;;;;;16.77;34.71;102454.47;5050825;28;20028;-69
2023/04/02 10:43:49;;;;;;;6.40;2.60;;;;;;;16.76;32.54;102461.53;5051346;28;20050;-69
2023/04/02 10:46:50;;;;;;;3.97;2.33;;;;;;;17.94;32.76;102476.00;5044612;28;20075;-69
2023/04/02 10:49:29;;;;;;;3.90;2.20;;;;;;;17.71;31.17;102471.88;5070548;28;20140;-69
2023/04/02 10:52:02;;;;;;;4.97;2.08;;;;;;;18.26;30.74;102472.84;5088108;28;20723;-69
2023/04/02 10:54:50;;;;;;;5.00;2.30;;;;;;;17.02;32.21;102473.63;5087234;28;20039;-69
2023/04/02 10:57:33;;;;;;;4.55;1.95;;;;;;;16.97;32.38;102486.00;5087701;28;20029;-70
2023/04/02 11:00:10;;;;;;;7.22;2.05;;;;;;;17.39;31.63;102481.13;5089288;28;20032;-69
2023/04/02 11:03:08;;;;;;;3.22;1.60;;;;;;;17.76;31.57;102485.94;5088114;28;20047;-70
2023/04/02 11:05:42;;;;;;;5.00;1.60;;;;;;;16.93;31.76;102484.28;5052689;28;20396;-69
2023/04/02 11:08:21;;;;;;;6.72;2.22;;;;;;;18.81;30.75;102480.75;5086686;28;20073;-70
2023/04/02 11:10:52;;;;;;;3.60;1.80;;;;;;;16.81;31.05;102493.16;5089091;28;20028;-70
2023/04/02 11:13:44;;;;;;;4.90;1.77;;;;;;;17.64;31.47;102483.47;5087615;28;20456;-69
2023/04/02 11:16:16;;;;;;;5.50;1.98;;;;;;;17.19;31.58;102491.06;5087761;28;20059;-69
2023/04/02 11:19:02;;;;;;;3.50;1.80;;;;;;;17.11;31.87;102494.66;5088034;28;20480;-70
2023/04/02 11:21:39;;;;;;;3.20;1.80;;;;;;;16.59;33.15;102490.72;5087468;28;20065;-69
2023/04/02 11:24:05;;;;;;;7.75;2.35;;;;;;;16.66;33.26;102502.09;5088816;28;20039;-69
2023/04/02 11:26:41;;;;;;;7.45;1.90;;;;;;;17.61;31.39;102504.63;5089229;28;20048;-69
2023/04/02 11:29:23;;;;;;;4.43;1.92;;;;;;;17.68;31.57;102511.59;5086336;28;20066;-69
2023/04/02 11:32:10;;;;;;;3.15;1.73;;;;;;;16.49;32.63;102515.47;5086207;28;20547;-69
2023/04/02 11:34:44;;;;;;;6.32;1.60;;;;;;;17.86;31.90;102520.16;5089016;28;20028;-69
2023/04/02 11:37:28;;;;;;;2.85;1.63;;;;;;;17.99;29.80;102521.78;5087726;28;20027;-70
2023/04/02 11:39:58;;;;;;;3.08;1.50;;;;;;;17.59;30.80;102517.88;5087265;28;20501;-69
2023/04/02 11:42:26;;;;;;;7.03;2.05;;;;;;;17.59;29.34;102506.44;5085617;28;20020;-69
2023/04/02 11:44:53;;;;;;;3.63;1.63;;;;;;;17.83;30.31;102509.63;5088731;28;20035;-70
2023/04/02 11:47:20;;;;;;;3.58;1.63;;;;;;;19.06;29.38;102507.66;5087089;28;20466;-70
2023/04/02 11:49:54;;;;;;;4.57;1.90;;;;;;;19.44;28.61;102513.09;5086850;28;20048;-70
2023/04/02 11:52:48;;;;;;;7.43;1.70;;;;;;;18.50;30.12;102517.47;5086254;28;20050;-69
2023/04/02 11:55:23;;;;;;;3.92;1.92;;;;;;;17.97;31.28;102513.00;5085550;28;20492;-70